Time;durP1;ratioP1;P1;durP2;ratioP2;P2;SDS_P1;SDS_P2;PMS_P1;PMS_P2;Temp;Humidity;BMP_temperature;BMP_pressure;BME280_temperature;BME280_humidity;BME280_pressure;Samples;Min_cycle;Max_cycle;Signal;HPM_P1;HPM_P2
2021/06/19 00:00:55;;;;;;;5.97;4.47;;;;;26.80;101074.00;;;;5108495;28;20201;-74
2021/06/19 00:03:22;;;;;;;5.05;4.45;;;;;26.80;101075.00;;;;5105530;28;20229;-74
2021/06/19 00:05:50;;;;;;;3.75;3.45;;;;;26.80;101076.00;;;;5109986;28;20225;-75
2021/06/19 00:08:18;;;;;;;6.20;3.75;;;;;26.80;101073.00;;;;5110151;28;20219;-75
2021/06/19 00:10:45;;;;;;;3.38;3.00;;;;;26.70;101073.00;;;;5109642;28;20198;-74
2021/06/19 00:13:12;;;;;;;3.33;3.03;;;;;26.70;101072.00;;;;5102485;28;20194;-75
2021/06/19 00:15:40;;;;;;;4.80;3.53;;;;;26.70;101066.00;;;;5103684;28;20225;-74
2021/06/19 00:18:08;;;;;;;4.28;2.78;;;;;26.70;101074.00;;;;5104454;28;20205;-74
2021/06/19 00:20:35;;;;;;;5.45;3.53;;;;;26.60;101076.00;;;;5108446;28;20201;-75
2021/06/19 00:23:04;;;;;;;4.63;2.80;;;;;26.60;101073.00;;;;5102352;28;20218;-75
2021/06/19 00:25:31;;;;;;;5.07;2.45;;;;;26.60;101079.00;;;;5098537;28;20189;-75
2021/06/19 00:27:58;;;;;;;5.43;2.92;;;;;26.60;101077.00;;;;5110026;28;20690;-75
2021/06/19 00:30:26;;;;;;;4.50;2.58;;;;;26.50;101071.00;;;;5105908;28;20205;-75
2021/06/19 00:32:54;;;;;;;8.68;2.30;;;;;26.50;101077.00;;;;5108091;28;20193;-75
2021/06/19 00:35:21;;;;;;;4.28;2.17;;;;;26.50;101070.00;;;;5108812;28;20217;-74
2021/06/19 00:37:49;;;;;;;4.38;2.17;;;;;26.50;101072.00;;;;5108071;28;20190;-74
2021/06/19 00:40:20;;;;;;;2.50;2.30;;;;;26.40;101067.00;;;;5110160;28;20263;-74
2021/06/19 00:42:55;;;;;;;2.47;2.28;;;;;26.40;101069.00;;;;5096289;28;20218;-74
2021/06/19 00:45:23;;;;;;;3.35;1.95;;;;;26.40;101071.00;;;;5103918;28;20208;-75
2021/06/19 00:47:50;;;;;;;5.32;2.15;;;;;26.40;101074.00;;;;5101401;28;20655;-74
2021/06/19 00:50:18;;;;;;;4.03;2.20;;;;;26.40;101080.00;;;;5109954;28;20213;-74
2021/06/19 00:52:45;;;;;;;2.40;2.20;;;;;26.30;101069.00;;;;5108209;28;20200;-74
2021/06/19 00:55:13;;;;;;;1.88;1.77;;;;;26.30;101070.00;;;;5108546;28;20201;-74
2021/06/19 00:57:41;;;;;;;2.47;2.28;;;;;26.30;101063.00;;;;5107550;28;20197;-75
2021/06/19 01:00:11;;;;;;;4.15;2.05;;;;;26.30;101064.00;;;;5106055;28;20193;-74
2021/06/19 01:02:39;;;;;;;3.25;1.85;;;;;26.30;101066.00;;;;5106746;28;20194;-74
2021/06/19 01:05:07;;;;;;;3.38;1.98;;;;;26.20;101058.00;;;;5109033;28;20281;-74
2021/06/19 01:07:35;;;;;;;5.40;2.33;;;;;26.20;101066.00;;;;5107062;28;20201;-74
2021/06/19 01:10:03;;;;;;;2.70;2.42;;;;;26.20;101068.00;;;;5108194;28;20201;-74
2021/06/19 01:12:30;;;;;;;2.95;2.45;;;;;26.20;101067.00;;;;5099000;28;20186;-75
2021/06/19 01:14:58;;;;;;;2.15;1.98;;;;;26.10;101074.00;;;;5088492;28;20202;-74
2021/06/19 01:17:26;;;;;;;2.20;2.00;;;;;26.10;101072.00;;;;5095355;28;20197;-74
2021/06/19 01:20:04;;;;;;;2.53;2.33;;;;;26.00;101077.00;;;;5107753;28;20190;-74
2021/06/19 01:22:31;;;;;;;4.60;2.13;;;;;26.10;101080.00;;;;5104208;28;20192;-74
2021/06/19 01:25:01;;;;;;;4.68;2.13;;;;;26.00;101082.00;;;;5096885;28;20193;-75
2021/06/19 01:27:29;;;;;;;4.13;1.65;;;;;26.00;101084.00;;;;5103672;28;20194;-75
2021/06/19 01:29:58;;;;;;;2.35;2.15;;;;;26.00;101093.00;;;;5104533;28;20202;-75
2021/06/19 01:32:29;;;;;;;2.03;1.83;;;;;26.00;101090.00;;;;5104122;28;20194;-75
2021/06/19 01:34:56;;;;;;;2.65;1.95;;;;;26.00;101085.00;;;;5108114;28;20225;-74
2021/06/19 01:37:24;;;;;;;2.15;1.73;;;;;25.90;101082.00;;;;5106512;28;20230;-74
2021/06/19 01:39:51;;;;;;;4.47;1.83;;;;;25.90;101080.00;;;;5107589;28;20615;-74
2021/06/19 01:42:19;;;;;;;8.98;2.38;;;;;25.90;101081.00;;;;5101563;28;20194;-75
2021/06/19 01:44:47;;;;;;;2.00;1.80;;;;;25.90;101082.00;;;;5093648;28;20225;-74
2021/06/19 01:47:14;;;;;;;1.80;1.63;;;;;25.90;101081.00;;;;5104806;28;20190;-74
2021/06/19 01:49:41;;;;;;;3.13;2.00;;;;;25.90;101077.00;;;;5107313;28;20217;-75
2021/06/19 01:52:08;;;;;;;2.28;1.95;;;;;25.80;101070.00;;;;5097707;28;20191;-74
2021/06/19 01:54:39;;;;;;;2.92;2.08;;;;;25.80;101074.00;;;;5089444;28;20284;-74
2021/06/19 01:57:07;;;;;;;4.43;1.98;;;;;25.80;101082.00;;;;5106902;28;20197;-74
2021/06/19 01:59:35;;;;;;;1.77;1.58;;;;;25.80;101077.00;;;;5106327;28;20243;-74
2021/06/19 02:02:03;;;;;;;2.42;2.22;;;;;25.80;101079.00;;;;5105395;28;20291;-74
2021/06/19 02:04:32;;;;;;;2.00;1.80;;;;;25.80;101080.00;;;;5098349;28;20706;-74
2021/06/19 02:06:59;;;;;;;2.28;2.05;;;;;25.80;101079.00;;;;5095403;28;20194;-75
2021/06/19 02:09:26;;;;;;;2.25;2.05;;;;;25.70;101075.00;;;;5100658;28;20194;-75
2021/06/19 02:11:54;;;;;;;3.70;2.17;;;;;25.70;101077.00;;;;5088056;28;20198;-75
2021/06/19 02:14:21;;;;;;;2.72;2.30;;;;;25.70;101074.00;;;;5087729;28;20198;-75
2021/06/19 02:16:50;;;;;;;4.00;2.30;;;;;25.70;101069.00;;;;5107204;28;20197;-74
2021/06/19 02:19:17;;;;;;;2.47;2.28;;;;;25.70;101066.00;;;;5100600;28;20200;-75
2021/06/19 02:21:44;;;;;;;2.35;2.15;;;;;25.60;101063.00;;;;5106480;28;20205;-75
2021/06/19 02:24:11;;;;;;;2.58;2.38;;;;;25.60;101062.00;;;;5104849;28;20221;-74
2021/06/19 02:26:39;;;;;;;5.00;2.53;;;;;25.60;101073.00;;;;5101553;28;20198;-75
2021/06/19 02:29:06;;;;;;;4.55;2.85;;;;;25.60;101064.00;;;;5092535;28;20201;-75
2021/06/19 02:31:33;;;;;;;4.03;2.45;;;;;25.60;101073.00;;;;5106255;28;20267;-75
2021/06/19 02:34:02;;;;;;;4.07;2.88;;;;;25.60;101075.00;;;;5106817;28;20197;-74
2021/06/19 02:36:29;;;;;;;2.60;2.38;;;;;25.60;101078.00;;;;5103095;28;20226;-74
2021/06/19 02:38:56;;;;;;;5.40;2.88;;;;;25.60;101090.00;;;;5098272;28;20189;-75
2021/06/19 02:41:24;;;;;;;4.60;3.03;;;;;25.60;101095.00;;;;5105979;28;20212;-74
2021/06/19 02:43:52;;;;;;;2.63;2.42;;;;;25.60;101092.00;;;;5106270;28;20229;-75
2021/06/19 02:46:21;;;;;;;4.90;2.83;;;;;25.60;101099.00;;;;5108902;28;20280;-75
2021/06/19 02:48:48;;;;;;;6.50;3.55;;;;;25.60;101100.00;;;;5109013;28;20694;-74
2021/06/19 02:51:17;;;;;;;3.15;2.85;;;;;25.60;101105.00;;;;5107767;28;20632;-74
2021/06/19 02:53:44;;;;;;;3.67;3.30;;;;;25.60;101091.00;;;;5106234;28;20198;-74
2021/06/19 02:56:11;;;;;;;3.38;3.08;;;;;25.60;101103.00;;;;5107875;28;20676;-74
2021/06/19 02:58:38;;;;;;;4.15;3.45;;;;;25.60;101107.00;;;;5102919;28;20212;-75
2021/06/19 03:01:08;;;;;;;4.25;3.40;;;;;25.60;101111.00;;;;5106811;28;20194;-75
2021/06/19 03:03:35;;;;;;;4.18;3.17;;;;;25.60;101105.00;;;;5101138;28;20561;-74
2021/06/19 03:06:03;;;;;;;4.13;3.72;;;;;25.60;101107.00;;;;5090177;28;20198;-75
2021/06/19 03:08:31;;;;;;;4.03;3.42;;;;;25.60;101103.00;;;;5101303;28;20194;-74
2021/06/19 03:10:59;;;;;;;4.05;3.67;;;;;25.60;101113.00;;;;5105262;28;20940;-75
2021/06/19 03:13:26;;;;;;;5.10;3.63;;;;;25.60;101113.00;;;;5103222;28;20193;-74
2021/06/19 03:15:53;;;;;;;4.55;3.58;;;;;25.60;101114.00;;;;5106648;28;20186;-74
2021/06/19 03:18:21;;;;;;;3.67;3.30;;;;;25.60;101116.00;;;;5107823;28;20201;-75
2021/06/19 03:20:48;;;;;;;3.03;2.72;;;;;25.60;101118.00;;;;5111828;28;20202;-74
2021/06/19 03:23:16;;;;;;;4.22;3.25;;;;;25.60;101114.00;;;;5111561;28;20202;-75
2021/06/19 03:25:45;;;;;;;4.93;3.42;;;;;25.60;101114.00;;;;5111807;28;20205;-74
2021/06/19 03:28:14;;;;;;;4.93;3.50;;;;;25.60;101121.00;;;;5109819;27;20201;-74
2021/06/19 03:30:43;;;;;;;3.50;3.20;;;;;25.60;101119.00;;;;5107839;28;20687;-74
2021/06/19 03:33:12;;;;;;;3.67;3.38;;;;;25.60;101124.00;;;;5107929;28;20193;-74
2021/06/19 03:35:39;;;;;;;3.38;2.97;;;;;25.60;101125.00;;;;5108908;28;20271;-75
2021/06/19 03:38:07;;;;;;;4.45;3.13;;;;;25.60;101133.00;;;;5104297;28;20197;-74
2021/06/19 03:40:35;;;;;;;3.17;2.88;;;;;25.60;101130.00;;;;5110841;28;20197;-74
2021/06/19 03:43:04;;;;;;;3.92;3.45;;;;;25.60;101138.00;;;;5110690;28;20233;-74
2021/06/19 03:45:34;;;;;;;3.80;3.40;;;;;25.60;101138.00;;;;5110340;28;20218;-74
2021/06/19 03:48:03;;;;;;;4.20;3.40;;;;;25.60;101142.00;;;;5109590;28;20298;-75
2021/06/19 03:50:30;;;;;;;4.20;3.28;;;;;25.60;101142.00;;;;5109374;28;20614;-75
2021/06/19 03:53:00;;;;;;;4.68;4.13;;;;;25.60;101150.00;;;;5109303;28;20659;-74
2021/06/19 03:55:28;;;;;;;4.53;4.13;;;;;25.60;101142.00;;;;5110888;28;20232;-74
2021/06/19 03:57:57;;;;;;;4.80;4.30;;;;;25.60;101155.00;;;;5110351;28;20202;-74
2021/06/19 04:00:27;;;;;;;4.38;3.95;;;;;25.60;101157.00;;;;5108277;28;20581;-74
2021/06/19 04:02:54;;;;;;;5.70;4.30;;;;;25.70;101157.00;;;;5105160;28;20194;-75
2021/06/19 04:05:21;;;;;;;7.50;5.75;;;;;25.70;101153.00;;;;5111304;28;20217;-75
2021/06/19 04:07:49;;;;;;;12.13;7.40;;;;;25.70;101164.00;;;;5109350;28;20275;-74
2021/06/19 04:10:18;;;;;;;8.25;7.35;;;;;25.70;101160.00;;;;5110674;28;20193;-74
2021/06/19 04:12:45;;;;;;;14.45;9.27;;;;;25.70;101157.00;;;;5106125;28;20201;-74
2021/06/19 04:15:14;;;;;;;10.77;9.32;;;;;25.70;101167.00;;;;5104343;28;20227;-75
2021/06/19 04:17:43;;;;;;;13.18;10.55;;;;;25.70;101178.00;;;;5100922;28;20288;-75
2021/06/19 04:20:13;;;;;;;18.50;11.70;;;;;25.70;101185.00;;;;5109842;28;20194;-74
2021/06/19 04:22:42;;;;;;;15.13;11.13;;;;;25.70;101183.00;;;;5109381;28;20250;-75
2021/06/19 04:25:11;;;;;;;17.23;11.55;;;;;25.70;101186.00;;;;5107788;28;21051;-74
2021/06/19 04:27:40;;;;;;;15.95;11.18;;;;;25.70;101192.00;;;;5100178;28;20189;-75
2021/06/19 04:30:09;;;;;;;17.85;12.90;;;;;25.70;101187.00;;;;5108193;28;20190;-75
2021/06/19 04:32:36;;;;;;;18.20;12.75;;;;;25.70;101191.00;;;;5104621;28;20189;-75
2021/06/19 04:35:06;;;;;;;20.27;14.18;;;;;25.70;101200.00;;;;5109119;28;20221;-75
2021/06/19 04:37:34;;;;;;;15.98;11.30;;;;;25.70;101208.00;;;;5109842;28;20192;-76
2021/06/19 04:40:06;;;;;;;20.80;13.18;;;;;25.70;101198.00;;;;5109757;28;20186;-75
2021/06/19 04:42:37;;;;;;;20.25;12.90;;;;;25.70;101197.00;;;;5108493;28;20212;-76
2021/06/19 04:45:06;;;;;;;23.45;14.90;;;;;25.70;101199.00;;;;5109107;28;20221;-76
2021/06/19 04:47:34;;;;;;;18.05;12.95;;;;;25.70;101203.00;;;;5108622;28;20185;-75
2021/06/19 04:50:02;;;;;;;22.25;13.73;;;;;25.70;101207.00;;;;5109700;28;20803;-76
2021/06/19 04:52:34;;;;;;;21.42;13.85;;;;;25.60;101211.00;;;;5108339;28;20202;-76
2021/06/19 04:55:02;;;;;;;19.70;12.65;;;;;25.70;101206.00;;;;5100657;28;20732;-76
2021/06/19 04:57:30;;;;;;;23.45;15.27;;;;;25.70;101218.00;;;;5107344;28;20550;-76
2021/06/19 04:59:58;;;;;;;21.00;13.80;;;;;25.60;101226.00;;;;5107475;28;20194;-76
2021/06/19 05:02:25;;;;;;;22.27;14.18;;;;;25.60;101238.00;;;;5102619;28;20282;-75
2021/06/19 05:04:52;;;;;;;18.92;13.05;;;;;25.70;101233.00;;;;5108457;28;20221;-75
2021/06/19 05:07:20;;;;;;;21.35;13.10;;;;;25.60;101227.00;;;;5107849;28;20197;-76
2021/06/19 05:09:48;;;;;;;22.48;13.95;;;;;25.70;101225.00;;;;5108664;28;20672;-76
2021/06/19 05:12:15;;;;;;;18.33;13.30;;;;;25.70;101235.00;;;;5109469;28;20209;-75
2021/06/19 05:14:42;;;;;;;21.10;14.07;;;;;25.70;101234.00;;;;5106790;28;20202;-75
2021/06/19 05:17:10;;;;;;;26.25;15.25;;;;;25.70;101242.00;;;;5107980;28;20212;-75
2021/06/19 05:19:37;;;;;;;26.42;14.85;;;;;25.80;101242.00;;;;5107995;28;20561;-76
2021/06/19 05:22:04;;;;;;;21.33;14.45;;;;;25.80;101246.00;;;;5109548;28;20208;-76
2021/06/19 05:24:32;;;;;;;21.75;13.93;;;;;25.80;101254.00;;;;5104827;28;20232;-75
2021/06/19 05:27:00;;;;;;;26.13;15.60;;;;;25.80;101247.00;;;;5105277;28;20197;-76
2021/06/19 05:29:27;;;;;;;22.13;14.77;;;;;25.80;101249.00;;;;5104824;28;20199;-75
2021/06/19 05:31:55;;;;;;;19.95;14.10;;;;;25.80;101260.00;;;;5103755;28;20190;-75
2021/06/19 05:34:22;;;;;;;23.38;13.65;;;;;25.80;101267.00;;;;5108363;28;20193;-76
2021/06/19 05:36:49;;;;;;;22.00;14.23;;;;;25.80;101269.00;;;;5108245;28;20217;-76
2021/06/19 05:39:16;;;;;;;25.58;15.73;;;;;25.80;101259.00;;;;5096686;28;20194;-76
2021/06/19 05:41:43;;;;;;;25.80;14.07;;;;;25.80;101266.00;;;;5108438;28;20193;-75
2021/06/19 05:44:12;;;;;;;22.42;13.27;;;;;25.70;101270.00;;;;5106532;28;20201;-76
2021/06/19 05:46:39;;;;;;;27.45;14.40;;;;;25.70;101269.00;;;;5106618;28;20228;-76
2021/06/19 05:49:07;;;;;;;17.60;13.00;;;;;25.70;101277.00;;;;5107857;28;20614;-76
2021/06/19 05:51:35;;;;;;;19.13;12.80;;;;;25.70;101281.00;;;;5108287;28;20225;-76
2021/06/19 05:54:03;;;;;;;16.50;12.30;;;;;25.70;101282.00;;;;5103641;28;20194;-75
2021/06/19 05:56:30;;;;;;;18.58;12.77;;;;;25.60;101275.00;;;;5096663;28;20284;-76
2021/06/19 05:58:57;;;;;;;23.25;13.43;;;;;25.60;101282.00;;;;5104559;28;20578;-76
2021/06/19 06:01:27;;;;;;;17.90;11.18;;;;;25.60;101278.00;;;;5099797;28;20201;-76
2021/06/19 06:03:54;;;;;;;19.15;12.07;;;;;25.60;101281.00;;;;5093302;28;20220;-76
2021/06/19 06:06:21;;;;;;;20.10;11.68;;;;;25.60;101286.00;;;;5100547;28;20217;-76
2021/06/19 06:08:49;;;;;;;15.32;9.98;;;;;25.60;101290.00;;;;5107215;28;20209;-76
2021/06/19 06:11:16;;;;;;;16.15;9.75;;;;;25.60;101289.00;;;;5106607;28;20190;-76
2021/06/19 06:13:43;;;;;;;13.48;8.63;;;;;25.60;101285.00;;;;5107052;28;20193;-75
2021/06/19 06:16:10;;;;;;;11.93;8.15;;;;;25.60;101294.00;;;;5102368;28;20213;-76
2021/06/19 06:18:39;;;;;;;11.30;7.95;;;;;25.60;101301.00;;;;5106209;28;20197;-76
2021/06/19 06:21:08;;;;;;;10.18;7.15;;;;;25.60;101300.00;;;;5098159;28;20197;-76
2021/06/19 06:23:35;;;;;;;8.95;6.88;;;;;25.60;101305.00;;;;5103810;28;20285;-76
2021/06/19 06:26:02;;;;;;;9.77;7.03;;;;;25.60;101312.00;;;;5101167;28;20229;-77
2021/06/19 06:28:30;;;;;;;7.78;6.38;;;;;25.60;101321.00;;;;5101714;28;20203;-76
2021/06/19 06:30:57;;;;;;;6.35;5.63;;;;;25.60;101323.00;;;;5102543;28;20205;-76
2021/06/19 06:33:26;;;;;;;6.40;5.22;;;;;25.50;101325.00;;;;5104708;28;20602;-77
2021/06/19 06:35:56;;;;;;;8.82;4.97;;;;;25.50;101325.00;;;;5104738;28;20715;-76
2021/06/19 06:38:24;;;;;;;5.70;4.40;;;;;25.50;101329.00;;;;5102626;28;20292;-76
2021/06/19 06:40:52;;;;;;;6.80;4.43;;;;;25.50;101326.00;;;;5105371;28;20229;-77
2021/06/19 06:43:19;;;;;;;4.78;3.63;;;;;25.40;101329.00;;;;5105184;28;20202;-74
2021/06/19 06:45:46;;;;;;;3.85;3.25;;;;;25.40;101330.00;;;;5102079;28;20228;-77
2021/06/19 06:48:14;;;;;;;4.05;3.58;;;;;25.40;101339.00;;;;5105961;28;20667;-80
2021/06/19 06:50:41;;;;;;;5.45;4.25;;;;;25.40;101336.00;;;;5102272;28;20578;-76
2021/06/19 06:53:10;;;;;;;5.82;4.28;;;;;25.30;101335.00;;;;5106152;28;20205;-78
2021/06/19 06:55:38;;;;;;;4.60;3.58;;;;;25.40;101339.00;;;;5107612;28;20196;-78
2021/06/19 06:58:05;;;;;;;5.47;4.10;;;;;25.40;101338.00;;;;5106820;28;20198;-79
2021/06/19 07:00:32;;;;;;;4.55;3.80;;;;;25.40;101344.00;;;;5108641;28;20193;-79
2021/06/19 07:03:00;;;;;;;5.50;4.43;;;;;25.40;101334.00;;;;5110042;28;20206;-79
2021/06/19 07:05:27;;;;;;;6.05;5.15;;;;;25.40;101344.00;;;;5108144;28;20221;-79
2021/06/19 07:07:54;;;;;;;6.97;4.97;;;;;25.40;101338.00;;;;5105937;28;20301;-78
2021/06/19 07:10:23;;;;;;;6.03;5.30;;;;;25.40;101348.00;;;;5102940;27;20202;-77
2021/06/19 07:12:50;;;;;;;7.15;4.75;;;;;25.40;101332.00;;;;5108137;28;20644;-77
2021/06/19 07:15:20;;;;;;;6.28;5.43;;;;;25.40;101333.00;;;;5104758;28;20191;-78
2021/06/19 07:17:49;;;;;;;6.95;5.57;;;;;25.40;101332.00;;;;5108337;28;20194;-77
2021/06/19 07:20:18;;;;;;;6.35;5.20;;;;;25.40;101336.00;;;;5111079;28;20201;-77
2021/06/19 07:22:46;;;;;;;6.50;5.15;;;;;25.40;101334.00;;;;5100688;28;20514;-79
2021/06/19 07:25:14;;;;;;;5.40;4.63;;;;;25.40;101339.00;;;;5104242;28;20213;-78
2021/06/19 07:27:45;;;;;;;5.95;4.80;;;;;25.40;101340.00;;;;5112197;28;20554;-79
2021/06/19 07:30:14;;;;;;;6.80;5.72;;;;;25.40;101335.00;;;;5109956;28;20276;-78
2021/06/19 07:32:41;;;;;;;5.88;5.28;;;;;25.40;101344.00;;;;5092714;28;20229;-76
2021/06/19 07:35:09;;;;;;;7.90;5.10;;;;;25.40;101350.00;;;;5092118;28;20222;-76
2021/06/19 07:37:37;;;;;;;6.28;5.25;;;;;25.40;101349.00;;;;5110344;28;20194;-76
2021/06/19 07:40:06;;;;;;;6.15;5.55;;;;;25.30;101355.00;;;;5107068;28;20201;-76
2021/06/19 07:42:35;;;;;;;6.88;5.38;;;;;25.40;101352.00;;;;5100315;28;20205;-77
2021/06/19 07:45:05;;;;;;;5.90;5.05;;;;;25.30;101364.00;;;;5098143;28;20215;-75
2021/06/19 07:47:32;;;;;;;6.93;4.82;;;;;25.30;101368.00;;;;5109299;28;20546;-76
2021/06/19 07:49:59;;;;;;;13.95;6.32;;;;;25.30;101367.00;;;;5109751;28;20217;-77
2021/06/19 07:52:27;;;;;;;7.43;5.05;;;;;25.30;101370.00;;;;5109826;28;20189;-77
2021/06/19 07:54:54;;;;;;;7.32;4.70;;;;;25.30;101376.00;;;;5110019;28;20198;-78
2021/06/19 07:57:21;;;;;;;5.00;4.10;;;;;25.30;101368.00;;;;5110769;28;20208;-78
2021/06/19 07:59:48;;;;;;;6.90;4.47;;;;;25.30;101375.00;;;;5109119;28;20202;-77
2021/06/19 08:02:18;;;;;;;5.82;5.18;;;;;25.30;101374.00;;;;5109507;28;20193;-78
2021/06/19 08:04:47;;;;;;;6.10;4.85;;;;;25.30;101380.00;;;;5110232;28;20197;-75
2021/06/19 08:07:14;;;;;;;5.47;4.63;;;;;25.30;101373.00;;;;5110105;28;20703;-76
2021/06/19 08:09:42;;;;;;;6.28;5.03;;;;;25.40;101381.00;;;;5103483;28;20217;-77
2021/06/19 08:12:09;;;;;;;6.63;5.47;;;;;25.30;101372.00;;;;5109005;28;20198;-77
2021/06/19 08:14:37;;;;;;;7.25;5.50;;;;;25.40;101373.00;;;;5108256;28;20201;-78
2021/06/19 08:17:08;;;;;;;7.45;5.43;;;;;25.40;101376.00;;;;5108695;28;20705;-78
2021/06/19 08:19:37;;;;;;;7.38;5.20;;;;;25.40;101385.00;;;;5109280;28;20285;-78
2021/06/19 08:22:06;;;;;;;8.25;5.82;;;;;25.30;101381.00;;;;5110139;28;20206;-78
2021/06/19 08:24:34;;;;;;;7.53;6.25;;;;;25.30;101381.00;;;;5109608;28;20282;-78
2021/06/19 08:27:01;;;;;;;5.80;5.03;;;;;25.30;101381.00;;;;5110076;28;20264;-76
2021/06/19 08:29:28;;;;;;;6.68;5.68;;;;;25.30;101375.00;;;;5109723;28;20200;-77
2021/06/19 08:31:55;;;;;;;5.40;4.80;;;;;25.20;101382.00;;;;5106974;28;20205;-77
2021/06/19 08:34:22;;;;;;;6.55;5.13;;;;;25.20;101388.00;;;;5105499;28;20679;-78
2021/06/19 08:36:51;;;;;;;5.72;4.78;;;;;25.20;101388.00;;;;5100945;28;20229;-77
2021/06/19 08:39:18;;;;;;;6.05;4.85;;;;;25.20;101389.00;;;;5100312;28;20197;-78
2021/06/19 08:41:48;;;;;;;5.18;4.47;;;;;25.20;101403.00;;;;5101389;28;20567;-76
2021/06/19 08:44:21;;;;;;;7.45;5.05;;;;;25.10;101401.00;;;;5099098;28;20198;-75
2021/06/19 08:46:50;;;;;;;5.63;4.93;;;;;25.20;101402.00;;;;5107939;28;20217;-76
2021/06/19 08:49:18;;;;;;;5.10;4.20;;;;;25.20;101403.00;;;;5098575;28;20641;-76
2021/06/19 08:51:45;;;;;;;4.78;4.28;;;;;25.30;101395.00;;;;5094652;28;20214;-76
2021/06/19 08:54:15;;;;;;;6.20;4.40;;;;;25.20;101394.00;;;;5095435;28;20191;-76
2021/06/19 08:56:42;;;;;;;7.35;4.85;;;;;25.30;101396.00;;;;5105917;28;20204;-76
2021/06/19 08:59:10;;;;;;;4.32;3.92;;;;;25.30;101386.00;;;;5110378;28;20206;-76
2021/06/19 09:01:38;;;;;;;4.88;3.97;;;;;25.30;101391.00;;;;5109847;28;20205;-76
2021/06/19 09:04:06;;;;;;;5.47;4.38;;;;;25.20;101398.00;;;;5109045;28;20224;-77
2021/06/19 09:06:37;;;;;;;5.65;4.85;;;;;25.20;101399.00;;;;5100818;28;20299;-76
2021/06/19 09:09:14;;;;;;;5.00;4.43;;;;;25.10;101408.00;;;;5105837;28;20664;-76
2021/06/19 09:11:44;;;;;;;6.38;4.50;;;;;25.20;101414.00;;;;5108265;28;20292;-76
2021/06/19 09:14:12;;;;;;;4.55;4.15;;;;;25.20;101403.00;;;;5109480;28;21070;-76
2021/06/19 09:16:41;;;;;;;5.43;4.45;;;;;25.20;101401.00;;;;5107044;28;21026;-76
2021/06/19 09:19:24;;;;;;;6.68;5.07;;;;;25.10;101407.00;;;;5108056;28;20200;-75
2021/06/19 09:22:10;;;;;;;5.38;4.82;;;;;25.10;101395.00;;;;5090607;28;20677;-76
2021/06/19 09:24:49;;;;;;;4.55;3.92;;;;;25.10;101389.00;;;;5107918;28;20201;-76
2021/06/19 09:27:34;;;;;;;6.03;4.30;;;;;25.00;101390.00;;;;5108635;28;20697;-77
2021/06/19 09:30:13;;;;;;;4.53;3.97;;;;;25.10;101389.00;;;;5107181;28;20197;-75
2021/06/19 09:32:45;;;;;;;4.32;3.90;;;;;25.10;101392.00;;;;5103545;28;20365;-76
2021/06/19 09:35:14;;;;;;;4.25;3.85;;;;;25.10;101395.00;;;;5107603;28;20225;-77
2021/06/19 09:37:43;;;;;;;4.30;3.90;;;;;25.10;101406.00;;;;5104638;27;20292;-77
2021/06/19 09:40:30;;;;;;;4.07;3.67;;;;;24.90;101414.00;;;;5101741;28;20185;-77
2021/06/19 09:43:10;;;;;;;3.78;3.35;;;;;24.90;101404.00;;;;5100649;28;20205;-76
2021/06/19 09:45:38;;;;;;;3.30;2.78;;;;;25.00;101412.00;;;;5098243;28;20224;-78
2021/06/19 09:48:06;;;;;;;2.90;2.70;;;;;25.00;101415.00;;;;5095669;28;20205;-77
2021/06/19 09:50:34;;;;;;;3.53;3.10;;;;;25.00;101418.00;;;;5106943;28;20220;-78
2021/06/19 09:53:15;;;;;;;3.22;2.92;;;;;24.90;101420.00;;;;5093378;28;20202;-77
2021/06/19 09:56:06;;;;;;;2.88;2.58;;;;;24.90;101415.00;;;;5095257;28;20202;-77
2021/06/19 09:58:41;;;;;;;3.17;2.88;;;;;24.90;101425.00;;;;5107851;28;20200;-77
2021/06/19 10:01:09;;;;;;;3.15;2.80;;;;;25.00;101424.00;;;;5102279;28;20272;-77
2021/06/19 10:03:53;;;;;;;3.78;3.47;;;;;24.80;101419.00;;;;5101617;28;20205;-78
2021/06/19 10:06:21;;;;;;;3.20;2.72;;;;;24.90;101421.00;;;;5099510;28;20225;-78
2021/06/19 10:08:50;;;;;;;3.28;2.92;;;;;24.90;101418.00;;;;5093612;28;20285;-76
2021/06/19 10:11:21;;;;;;;3.25;2.95;;;;;24.90;101417.00;;;;5100420;28;20201;-76
2021/06/19 10:13:48;;;;;;;2.80;2.55;;;;;24.90;101406.00;;;;5100283;28;20738;-77
2021/06/19 10:16:17;;;;;;;4.57;3.05;;;;;24.90;101405.00;;;;5101792;28;20190;-77
2021/06/19 10:18:46;;;;;;;3.20;2.90;;;;;25.00;101408.00;;;;5095273;28;20255;-77
2021/06/19 10:21:15;;;;;;;4.07;3.67;;;;;25.00;101403.00;;;;5106188;28;20194;-77
2021/06/19 10:23:43;;;;;;;3.88;3.47;;;;;25.00;101404.00;;;;5105365;28;20228;-77
2021/06/19 10:26:11;;;;;;;4.70;3.65;;;;;25.00;101408.00;;;;5105486;28;20224;-77
2021/06/19 10:28:46;;;;;;;3.38;3.08;;;;;24.90;101409.00;;;;5104525;28;20659;-76
2021/06/19 10:31:17;;;;;;;3.60;3.25;;;;;25.00;101406.00;;;;5108207;28;20197;-76
2021/06/19 10:33:44;;;;;;;4.50;3.53;;;;;25.00;101396.00;;;;5100700;28;20198;-77
2021/06/19 10:36:13;;;;;;;4.13;3.58;;;;;25.00;101398.00;;;;5109325;28;20232;-77
2021/06/19 10:38:50;;;;;;;3.53;3.20;;;;;24.90;101392.00;;;;5109399;28;20206;-76
2021/06/19 10:41:18;;;;;;;4.10;3.70;;;;;25.00;101403.00;;;;5100031;28;20209;-76
2021/06/19 10:43:49;;;;;;;8.48;4.40;;;;;25.00;101396.00;;;;5111056;28;20197;-76
2021/06/19 10:46:32;;;;;;;4.40;4.00;;;;;24.90;101396.00;;;;5098402;28;20244;-76
2021/06/19 10:49:00;;;;;;;4.63;4.03;;;;;25.00;101394.00;;;;5101641;27;20205;-75
2021/06/19 10:51:29;;;;;;;4.75;3.55;;;;;25.00;101390.00;;;;5109197;28;20667;-76
2021/06/19 10:54:14;;;;;;;5.68;4.70;;;;;24.90;101386.00;;;;5111643;28;20201;-76
2021/06/19 10:56:50;;;;;;;5.15;4.25;;;;;25.00;101387.00;;;;5096474;28;20751;-76
2021/06/19 10:59:21;;;;;;;5.70;4.20;;;;;25.10;101394.00;;;;5100109;28;20743;-75
2021/06/19 11:01:49;;;;;;;6.15;4.13;;;;;25.10;101385.00;;;;5099724;28;20208;-75
2021/06/19 11:04:45;;;;;;;5.03;4.05;;;;;25.00;101394.00;;;;5108275;28;20198;-75
2021/06/19 11:07:42;;;;;;;5.10;4.60;;;;;25.00;101397.00;;;;5107846;28;20252;-76
2021/06/19 11:10:29;;;;;;;5.70;4.30;;;;;25.10;101398.00;;;;5098425;28;20217;-75
2021/06/19 11:12:57;;;;;;;4.20;3.72;;;;;25.10;101395.00;;;;5109569;28;20279;-78
2021/06/19 11:15:36;;;;;;;4.90;3.88;;;;;25.00;101393.00;;;;5110277;28;20209;-78
2021/06/19 11:18:03;;;;;;;5.13;3.90;;;;;25.10;101386.00;;;;5112252;28;20209;-76
2021/06/19 11:20:31;;;;;;;5.40;4.70;;;;;25.10;101386.00;;;;5111370;28;20567;-79
2021/06/19 11:23:07;;;;;;;5.57;3.33;;;;;25.10;101381.00;;;;5111426;28;20204;-78
2021/06/19 11:25:54;;;;;;;4.40;3.38;;;;;25.00;101387.00;;;;5109550;28;20235;-77
2021/06/19 11:28:32;;;;;;;4.10;3.63;;;;;25.00;101377.00;;;;5108825;28;20198;-78
2021/06/19 11:31:04;;;;;;;4.47;3.80;;;;;25.10;101377.00;;;;5102718;28;20194;-79
2021/06/19 11:33:49;;;;;;;3.70;3.30;;;;;25.10;101377.00;;;;5106650;28;20215;-79
2021/06/19 11:36:26;;;;;;;6.10;4.00;;;;;25.10;101378.00;;;;5096991;28;20233;-77
2021/06/19 11:38:56;;;;;;;5.75;4.47;;;;;25.20;101377.00;;;;5110224;28;20204;-79
2021/06/19 11:41:26;;;;;;;6.07;5.43;;;;;25.20;101373.00;;;;5108071;28;20193;-79
2021/06/19 11:43:53;;;;;;;5.80;5.20;;;;;25.30;101372.00;;;;5101966;28;20202;-78
2021/06/19 11:46:23;;;;;;;5.65;5.10;;;;;25.30;101378.00;;;;5106990;28;20226;-79
2021/06/19 11:48:51;;;;;;;6.47;4.95;;;;;25.30;101377.00;;;;5098549;28;20194;-78
2021/06/19 11:51:21;;;;;;;5.50;4.90;;;;;25.30;101385.00;;;;5102931;28;20245;-78
2021/06/19 11:53:48;;;;;;;6.90;5.53;;;;;25.40;101376.00;;;;5110965;28;20189;-79
2021/06/19 11:56:17;;;;;;;9.05;5.28;;;;;25.40;101378.00;;;;5109439;28;20197;-79
2021/06/19 11:58:46;;;;;;;6.43;5.80;;;;;25.40;101374.00;;;;5110489;28;20275;-78
2021/06/19 12:01:14;;;;;;;6.90;5.55;;;;;25.40;101372.00;;;;5110742;28;20204;-77
2021/06/19 12:03:43;;;;;;;6.22;4.85;;;;;25.40;101361.00;;;;5110850;28;20687;-77
2021/06/19 12:06:10;;;;;;;7.05;5.72;;;;;25.40;101368.00;;;;5110823;28;20200;-77
2021/06/19 12:08:39;;;;;;;7.63;6.35;;;;;25.50;101376.00;;;;5108077;28;20686;-78
2021/06/19 12:11:06;;;;;;;5.25;4.75;;;;;25.50;101376.00;;;;5094232;28;20738;-77
2021/06/19 12:13:35;;;;;;;6.65;5.07;;;;;25.50;101385.00;;;;5110512;28;20205;-77
2021/06/19 12:16:04;;;;;;;5.45;4.95;;;;;25.50;101374.00;;;;5110006;28;20272;-77